Time;durP1;ratioP1;P1;durP2;ratioP2;P2;SDS_P1;SDS_P2;PMS_P1;PMS_P2;Temp;Humidity;BMP_temperature;BMP_pressure;BME280_temperature;BME280_humidity;BME280_pressure;Samples;Min_cycle;Max_cycle;Signal;HPM_P1;HPM_P2
2023/08/17 00:01:53;;;;;;;10.88;5.20;;;;;;;20.64;82.54;94678.34;4996297;28;20208;-77
2023/08/17 00:04:20;;;;;;;7.10;4.78;;;;;;;20.56;82.77;94694.84;5000782;28;20224;-78
2023/08/17 00:06:47;;;;;;;8.23;4.22;;;;;;;20.53;82.89;94689.31;4989772;28;20218;-78
2023/08/17 00:09:15;;;;;;;7.38;4.60;;;;;;;20.49;82.97;94683.03;4997116;28;20240;-78
2023/08/17 00:11:42;;;;;;;14.63;5.68;;;;;;;20.44;83.02;94686.94;4983923;28;20218;-78
2023/08/17 00:14:10;;;;;;;9.52;5.05;;;;;;;20.38;83.29;94687.69;4986560;28;20245;-77
2023/08/17 00:16:36;;;;;;;10.07;4.70;;;;;;;20.29;83.76;94685.28;4990639;28;20583;-78
2023/08/17 00:19:03;;;;;;;6.13;4.10;;;;;;;20.31;83.89;94688.44;4986778;28;20630;-78
2023/08/17 00:21:30;;;;;;;9.25;5.20;;;;;;;20.32;83.78;94687.28;4983000;28;20650;-78
2023/08/17 00:23:57;;;;;;;8.25;4.35;;;;;;;20.20;84.12;94682.91;4988994;28;20584;-77
2023/08/17 00:26:25;;;;;;;8.68;4.50;;;;;;;20.20;84.12;94687.63;4990795;28;20252;-77
2023/08/17 00:28:52;;;;;;;8.70;4.50;;;;;;;20.11;84.38;94687.16;4979661;28;20597;-77
2023/08/17 00:31:19;;;;;;;8.25;4.68;;;;;;;20.14;83.93;94689.16;4985764;28;20218;-77
2023/08/17 00:33:46;;;;;;;7.55;4.32;;;;;;;20.10;84.10;94688.34;4981080;28;20206;-76
2023/08/17 00:36:12;;;;;;;8.35;4.22;;;;;;;20.06;84.12;94688.34;4981801;28;20211;-78
2023/08/17 00:38:39;;;;;;;8.02;4.30;;;;;;;19.98;84.12;94692.22;4992107;28;20214;-77
2023/08/17 00:41:06;;;;;;;6.10;4.10;;;;;;;19.97;84.06;94684.34;4988256;28;20220;-77
2023/08/17 00:43:34;;;;;;;7.15;3.40;;;;;;;20.02;82.61;94670.25;4988953;28;20201;-76
2023/08/17 00:46:02;;;;;;;7.97;4.00;;;;;;;19.98;82.95;94674.94;4986954;28;20213;-77
2023/08/17 00:48:29;;;;;;;8.15;3.90;;;;;;;20.01;81.93;94674.16;4990366;28;20272;-76
2023/08/17 00:50:58;;;;;;;5.88;3.83;;;;;;;20.03;80.81;94678.13;4980437;28;20257;-76
2023/08/17 00:53:28;;;;;;;8.15;3.05;;;;;;;20.09;79.42;94667.53;4983068;28;20233;-77
2023/08/17 00:55:55;;;;;;;7.93;3.00;;;;;;;20.09;78.47;94671.06;4986344;28;20210;-77
2023/08/17 00:58:22;;;;;;;7.78;3.65;;;;;;;20.08;78.34;94675.00;4988720;28;20284;-76
2023/08/17 01:00:50;;;;;;;5.35;2.80;;;;;;;20.11;77.08;94665.97;4989150;28;20240;-76
2023/08/17 01:03:18;;;;;;;5.43;3.10;;;;;;;20.08;77.03;94663.22;4985418;28;20310;-77
2023/08/17 01:05:45;;;;;;;6.90;2.72;;;;;;;20.11;75.87;94667.91;4993218;28;20284;-77
2023/08/17 01:08:12;;;;;;;3.85;2.97;;;;;;;20.04;75.63;94673.41;4988173;28;20525;-77
2023/08/17 01:10:46;;;;;;;5.10;2.92;;;;;;;20.02;75.19;94671.03;4987882;28;20203;-75
2023/08/17 01:13:19;;;;;;;5.40;3.38;;;;;;;20.04;74.69;94667.91;4986766;28;20661;-75
2023/08/17 01:15:50;;;;;;;8.00;3.15;;;;;;;19.99;74.78;94666.31;4993474;28;20218;-77
2023/08/17 01:18:23;;;;;;;4.15;2.45;;;;;;;19.98;74.54;94670.22;4983452;28;20212;-77
2023/08/17 01:20:51;;;;;;;5.72;2.50;;;;;;;19.98;73.88;94670.22;4983686;28;20237;-75
2023/08/17 01:23:19;;;;;;;3.00;2.28;;;;;;;20.06;73.08;94662.81;4991352;28;20224;-76
2023/08/17 01:25:46;;;;;;;5.68;2.58;;;;;;;20.13;72.46;94660.06;4993136;28;20229;-76
2023/08/17 01:28:13;;;;;;;3.80;2.40;;;;;;;20.11;72.23;94660.44;4988544;28;20253;-75
2023/08/17 01:30:48;;;;;;;4.88;2.58;;;;;;;20.13;71.70;94654.56;4986165;28;20198;-76
2023/08/17 01:33:21;;;;;;;6.15;2.30;;;;;;;20.16;71.46;94653.81;4992748;28;20299;-76
2023/08/17 01:36:00;;;;;;;4.85;2.38;;;;;;;20.10;71.53;94655.34;4968560;28;20213;-76
2023/08/17 01:38:30;;;;;;;4.35;2.33;;;;;;;20.20;70.77;94665.63;4992958;28;20507;-76
2023/08/17 01:40:59;;;;;;;3.65;2.28;;;;;;;20.21;70.53;94658.94;4982555;28;20206;-75
2023/08/17 01:43:28;;;;;;;5.85;2.75;;;;;;;20.17;70.50;94666.38;4985345;28;20213;-75
2023/08/17 01:45:55;;;;;;;2.47;2.10;;;;;;;20.14;70.74;94667.16;4988668;28;20209;-76
2023/08/17 01:48:22;;;;;;;4.38;2.60;;;;;;;20.01;71.33;94663.16;4985256;28;20202;-76
2023/08/17 01:50:49;;;;;;;5.05;2.78;;;;;;;19.92;71.80;94668.25;4981963;28;20563;-76
2023/08/17 01:53:16;;;;;;;3.17;2.58;;;;;;;19.80;71.89;94664.66;4988095;28;20210;-76
2023/08/17 01:55:44;;;;;;;4.30;2.90;;;;;;;19.76;72.36;94663.84;4988343;28;20214;-75
2023/08/17 01:58:11;;;;;;;3.53;2.55;;;;;;;19.77;72.17;94659.94;4989727;28;20205;-75
2023/08/17 02:00:37;;;;;;;5.95;2.38;;;;;;;19.73;72.42;94664.63;4991099;28;20608;-75
2023/08/17 02:03:05;;;;;;;4.63;2.50;;;;;;;19.72;72.34;94665.78;4990299;28;20605;-76
2023/08/17 02:05:32;;;;;;;3.05;2.40;;;;;;;19.66;72.35;94661.84;4980401;28;20205;-76
2023/08/17 02:07:58;;;;;;;3.38;2.53;;;;;;;19.64;72.67;94666.94;4982807;28;20265;-75
2023/08/17 02:10:25;;;;;;;7.00;2.63;;;;;;;19.51;73.26;94657.44;4991277;28;20276;-76
2023/08/17 02:12:54;;;;;;;5.55;2.55;;;;;;;19.46;73.30;94668.75;4985437;28;20249;-76
2023/08/17 02:15:21;;;;;;;4.82;2.65;;;;;;;19.36;73.93;94661.22;4987066;28;20207;-76
2023/08/17 02:17:48;;;;;;;5.75;2.60;;;;;;;19.33;74.14;94668.25;4977322;28;20653;-76
2023/08/17 02:20:15;;;;;;;4.25;2.42;;;;;;;19.33;73.94;94661.97;4986171;28;20209;-75
2023/08/17 02:22:42;;;;;;;3.08;2.50;;;;;;;19.45;73.57;94659.72;4989562;28;20279;-75
2023/08/17 02:25:09;;;;;;;3.70;2.25;;;;;;;19.42;73.34;94654.19;4988748;28;20589;-75
2023/08/17 02:27:36;;;;;;;3.60;2.45;;;;;;;19.34;73.82;94656.13;4979106;28;20602;-76
2023/08/17 02:30:05;;;;;;;2.60;1.92;;;;;;;19.39;73.41;94661.25;4983533;28;20213;-75
2023/08/17 02:32:32;;;;;;;6.50;2.58;;;;;;;19.34;73.68;94652.56;4990714;28;20276;-76
2023/08/17 02:34:59;;;;;;;4.20;2.28;;;;;;;19.30;73.69;94662.75;4990112;28;20217;-75
2023/08/17 02:37:25;;;;;;;3.13;2.55;;;;;;;19.27;74.05;94658.03;4986601;28;20221;-76
2023/08/17 02:39:52;;;;;;;5.07;2.25;;;;;;;19.24;74.33;94659.59;4990277;28;20544;-76
2023/08/17 02:42:19;;;;;;;3.70;2.00;;;;;;;19.28;74.15;94656.84;4979651;28;20206;-75
2023/08/17 02:44:46;;;;;;;5.05;2.20;;;;;;;19.26;74.64;94656.47;4964437;28;20209;-76
2023/08/17 02:47:14;;;;;;;3.90;2.58;;;;;;;19.25;74.38;94649.38;4982974;28;20210;-76
2023/08/17 02:49:41;;;;;;;3.25;2.42;;;;;;;19.30;74.40;94647.06;4997040;28;20216;-75
2023/08/17 02:52:08;;;;;;;5.13;2.50;;;;;;;19.29;74.48;94645.47;4984992;28;20229;-75
2023/08/17 02:54:35;;;;;;;4.18;2.20;;;;;;;19.34;74.10;94647.09;4973874;28;20207;-75
2023/08/17 02:57:01;;;;;;;3.42;2.70;;;;;;;19.39;74.16;94643.97;4986565;28;20202;-76
2023/08/17 02:59:28;;;;;;;4.95;2.28;;;;;;;19.32;74.26;94643.91;4984693;28;20206;-75
2023/08/17 03:01:55;;;;;;;2.63;2.08;;;;;;;19.36;74.07;94642.00;4981316;28;20256;-75
2023/08/17 03:04:24;;;;;;;7.30;2.50;;;;;;;19.44;73.50;94638.09;4994206;28;20245;-76
2023/08/17 03:06:51;;;;;;;4.65;2.50;;;;;;;19.47;73.23;94645.59;5006784;28;20212;-76
2023/08/17 03:09:18;;;;;;;2.42;2.05;;;;;;;19.53;72.90;94638.59;4981469;28;20614;-75
2023/08/17 03:11:45;;;;;;;4.20;2.55;;;;;;;19.56;72.52;94643.31;4984608;28;20245;-75
2023/08/17 03:14:11;;;;;;;4.18;2.60;;;;;;;19.56;72.58;94640.56;4987773;28;20264;-76
2023/08/17 03:16:38;;;;;;;3.47;2.50;;;;;;;19.53;72.73;94633.09;4990611;28;20238;-77
2023/08/17 03:19:07;;;;;;;3.63;2.35;;;;;;;19.48;72.47;94633.44;4978023;28;20213;-76
2023/08/17 03:21:35;;;;;;;4.78;2.10;;;;;;;19.48;72.11;94647.97;4987860;28;20214;-75
2023/08/17 03:24:02;;;;;;;4.25;2.40;;;;;;;19.43;72.21;94650.28;4991002;28;20221;-76
2023/08/17 03:26:29;;;;;;;3.47;2.10;;;;;;;19.43;71.96;94650.28;4991491;28;20316;-76
2023/08/17 03:28:56;;;;;;;4.53;2.47;;;;;;;19.22;71.71;94633.66;4990347;28;20212;-76
2023/08/17 03:31:23;;;;;;;5.70;2.60;;;;;;;19.33;71.62;94646.28;4986905;28;20218;-76
2023/08/17 03:33:50;;;;;;;5.90;2.45;;;;;;;19.24;71.29;94654.09;4982345;28;20210;-76
2023/08/17 03:36:17;;;;;;;6.20;2.30;;;;;;;19.08;71.52;94648.88;4991558;28;20213;-76
2023/08/17 03:38:45;;;;;;;3.30;2.00;;;;;;;19.08;71.52;94651.63;4987729;28;20323;-76
2023/08/17 03:41:12;;;;;;;8.05;2.10;;;;;;;19.06;71.14;94656.69;4995974;28;20616;-76
2023/08/17 03:43:39;;;;;;;3.95;2.22;;;;;;;19.02;71.48;94657.81;4992804;28;20199;-76
2023/08/17 03:46:06;;;;;;;5.22;2.10;;;;;;;19.10;70.97;94663.00;4984662;28;20217;-76
2023/08/17 03:48:32;;;;;;;8.02;2.25;;;;;;;19.35;70.18;94665.94;4989369;28;20296;-76
2023/08/17 03:51:01;;;;;;;7.63;3.47;;;;;;;19.49;69.55;94659.78;4978154;28;20209;-77
2023/08/17 03:53:28;;;;;;;8.57;3.38;;;;;;;19.73;68.38;94661.88;4978601;28;20322;-76
2023/08/17 03:55:56;;;;;;;8.63;2.95;;;;;;;20.10;67.47;94655.34;4981636;28;20206;-76
2023/08/17 03:58:23;;;;;;;3.03;2.30;;;;;;;20.39;66.66;94657.03;4978784;28;20210;-76
2023/08/17 04:00:51;;;;;;;5.45;2.17;;;;;;;20.82;65.25;94662.63;4985824;28;20209;-77
2023/08/17 04:03:17;;;;;;;4.55;2.03;;;;;;;21.30;63.65;94662.28;4985886;28;20205;-76
2023/08/17 04:05:44;;;;;;;3.00;2.40;;;;;;;21.84;61.69;94656.25;4991085;28;20224;-76
2023/08/17 04:08:11;;;;;;;2.88;2.20;;;;;;;22.18;60.61;94653.78;4989238;28;20213;-76
2023/08/17 04:10:38;;;;;;;2.78;2.05;;;;;;;22.39;60.11;94652.13;4988811;28;20214;-76
2023/08/17 04:13:06;;;;;;;10.70;2.35;;;;;;;22.91;58.23;94656.56;4978447;28;20234;-76
2023/08/17 04:15:33;;;;;;;2.60;2.10;;;;;;;23.19;57.33;94661.06;4987979;28;20217;-76
2023/08/17 04:18:00;;;;;;;3.83;1.95;;;;;;;23.44;56.36;94654.53;4978342;28;20250;-77
2023/08/17 04:20:26;;;;;;;7.75;2.03;;;;;;;23.79;55.41;94659.72;4981287;28;20201;-77
2023/08/17 04:22:53;;;;;;;8.90;2.05;;;;;;;24.00;54.49;94648.44;4980200;28;20209;-77
2023/08/17 04:25:20;;;;;;;4.13;1.92;;;;;;;24.45;53.36;94645.56;4990510;28;20213;-76
2023/08/17 04:27:47;;;;;;;7.22;2.80;;;;;;;25.05;51.63;94649.44;4979782;28;20578;-77
2023/08/17 04:30:15;;;;;;;3.45;1.98;;;;;;;25.15;50.88;94645.72;4984485;28;20654;-76
2023/08/17 04:32:42;;;;;;;4.75;2.72;;;;;;;25.84;49.59;94644.91;4993815;28;20229;-77
2023/08/17 04:35:10;;;;;;;3.08;2.40;;;;;;;26.33;47.75;94641.63;5003040;28;20607;-77
2023/08/17 04:37:38;;;;;;;3.85;2.20;;;;;;;26.55;47.62;94637.19;5000579;28;20605;-77
2023/08/17 04:40:06;;;;;;;5.00;2.47;;;;;;;27.05;46.08;94642.44;4994799;28;20209;-77
2023/08/17 04:42:33;;;;;;;3.45;2.10;;;;;;;27.41;45.00;94641.56;4994990;28;20206;-77
2023/08/17 04:45:00;;;;;;;3.60;2.20;;;;;;;27.20;45.48;94642.84;4995245;28;20249;-77
2023/08/17 04:47:28;;;;;;;3.33;2.30;;;;;;;27.46;43.73;94641.06;4996864;28;20638;-76
2023/08/17 04:49:55;;;;;;;3.47;2.33;;;;;;;27.60;43.80;94643.50;5004495;28;20206;-76
2023/08/17 04:52:22;;;;;;;2.70;2.13;;;;;;;27.23;43.50;94642.00;4994559;28;20241;-77
2023/08/17 04:54:48;;;;;;;2.30;2.10;;;;;;;27.53;43.61;94647.22;4991897;28;20209;-77
2023/08/17 04:57:15;;;;;;;4.57;2.30;;;;;;;27.29;43.90;94640.28;4991204;28;20213;-75
2023/08/17 04:59:42;;;;;;;5.05;2.30;;;;;;;27.82;43.30;94638.94;4994408;28;20630;-76
2023/08/17 05:02:09;;;;;;;3.45;2.53;;;;;;;28.19;42.36;94636.75;4994018;28;20209;-78
2023/08/17 05:04:37;;;;;;;5.15;2.50;;;;;;;28.54;41.57;94637.75;4994177;28;20658;-78
2023/08/17 05:07:04;;;;;;;6.18;2.15;;;;;;;29.06;41.45;94628.22;4994157;28;20590;-76
2023/08/17 05:09:31;;;;;;;7.85;2.83;;;;;;;29.47;40.46;94628.09;4994061;28;20220;-76
2023/08/17 05:11:58;;;;;;;4.85;2.60;;;;;;;29.24;40.23;94634.78;5007283;28;21052;-76
2023/08/17 05:14:25;;;;;;;4.35;2.17;;;;;;;29.90;38.96;94632.22;4994097;28;20277;-76
2023/08/17 05:16:53;;;;;;;4.50;2.50;;;;;;;30.09;39.27;94636.72;4994207;28;20593;-77
2023/08/17 05:19:20;;;;;;;2.83;2.38;;;;;;;30.49;38.79;94628.47;4993265;28;20205;-76
2023/08/17 05:21:50;;;;;;;5.88;2.30;;;;;;;30.82;38.02;94631.66;4993875;28;20629;-76
2023/08/17 05:24:17;;;;;;;4.88;2.28;;;;;;;29.90;38.64;94640.59;4994224;28;20256;-76
2023/08/17 05:26:45;;;;;;;3.20;2.17;;;;;;;28.71;41.02;94641.19;4993674;28;20589;-79
2023/08/17 05:29:12;;;;;;;5.50;2.83;;;;;;;28.88;41.39;94646.28;4993771;28;20233;-76
2023/08/17 05:31:38;;;;;;;5.15;2.80;;;;;;;29.10;41.97;94640.06;4993574;28;20245;-76
2023/08/17 05:34:05;;;;;;;5.97;2.78;;;;;;;28.62;43.23;94639.09;4992984;28;20537;-75
2023/08/17 05:36:32;;;;;;;7.50;2.92;;;;;;;29.34;42.25;94644.03;4993187;28;20288;-77
2023/08/17 05:39:03;;;;;;;8.07;3.08;;;;;;;29.37;41.70;94645.94;4992828;28;20662;-76
2023/08/17 05:41:30;;;;;;;7.15;3.05;;;;;;;29.72;41.64;94640.41;4993098;28;20292;-77
2023/08/17 05:43:57;;;;;;;3.72;3.05;;;;;;;29.86;41.43;94639.94;4992551;28;20205;-77
2023/08/17 05:46:24;;;;;;;5.28;3.03;;;;;;;30.66;40.65;94626.28;4992301;28;20212;-76
2023/08/17 05:48:51;;;;;;;6.78;3.03;;;;;;;31.00;39.53;94634.53;4990158;28;20269;-76
2023/08/17 05:51:17;;;;;;;8.07;3.40;;;;;;;31.59;38.75;94638.16;4991994;28;20201;-76
2023/08/17 05:53:44;;;;;;;3.63;2.90;;;;;;;31.69;38.17;94647.41;4992160;28;20567;-77
2023/08/17 05:56:12;;;;;;;8.27;2.90;;;;;;;32.22;38.11;94644.38;4992042;28;20591;-76
2023/08/17 05:58:39;;;;;;;5.38;3.42;;;;;;;30.78;40.29;94658.19;4993339;28;20677;-77
2023/08/17 06:01:07;;;;;;;7.82;3.47;;;;;;;30.33;41.41;94651.84;4992348;28;20205;-77
2023/08/17 06:03:34;;;;;;;10.68;4.03;;;;;;;30.83;41.68;94650.00;4992682;28;20513;-76
2023/08/17 06:06:01;;;;;;;9.38;3.75;;;;;;;31.09;40.29;94657.00;4982662;28;20209;-76
2023/08/17 06:08:28;;;;;;;9.00;3.78;;;;;;;30.47;41.77;94661.72;4991887;28;20233;-77
2023/08/17 06:10:55;;;;;;;8.52;3.80;;;;;;;30.43;42.19;94654.69;4991757;28;20205;-76
2023/08/17 06:13:23;;;;;;;5.97;3.63;;;;;;;30.29;41.85;94656.00;4991667;28;20312;-76
2023/08/17 06:15:50;;;;;;;9.88;3.63;;;;;;;30.20;41.68;94659.50;4989356;28;20214;-78
2023/08/17 06:18:17;;;;;;;7.25;3.60;;;;;;;30.69;41.18;94653.34;4992103;28;20214;-76
2023/08/17 06:20:46;;;;;;;7.25;3.85;;;;;;;32.75;38.44;94650.41;4993421;28;20202;-75
2023/08/17 06:23:13;;;;;;;6.80;3.33;;;;;;;33.04;36.49;94642.22;4992579;28;20205;-75
2023/08/17 06:25:40;;;;;;;6.53;3.60;;;;;;;32.09;37.81;94647.31;4992381;28;20201;-76
2023/08/17 06:28:07;;;;;;;8.20;3.38;;;;;;;31.55;39.35;94654.38;4985803;28;20207;-75
2023/08/17 06:30:35;;;;;;;5.15;3.55;;;;;;;31.20;39.38;94661.38;4983865;28;20698;-76
2023/08/17 06:33:02;;;;;;;6.45;3.30;;;;;;;31.17;39.49;94659.50;4992485;28;20234;-76
2023/08/17 06:35:29;;;;;;;5.30;3.80;;;;;;;30.84;40.38;94654.34;4991874;28;20280;-75
2023/08/17 06:37:58;;;;;;;11.80;3.67;;;;;;;30.65;40.75;94661.06;4992390;28;20213;-77
2023/08/17 06:40:25;;;;;;;8.02;3.20;;;;;;;30.97;40.48;94663.44;4992318;28;20206;-76
2023/08/17 06:42:54;;;;;;;8.90;3.58;;;;;;;30.97;40.94;94655.03;4992700;28;20205;-76
2023/08/17 06:45:22;;;;;;;7.43;3.33;;;;;;;31.24;40.29;94656.44;4996978;28;20217;-77
2023/08/17 06:47:50;;;;;;;7.75;3.67;;;;;;;32.63;38.40;94660.53;4982704;28;20233;-76
2023/08/17 06:50:17;;;;;;;4.97;3.15;;;;;;;31.82;38.01;94664.09;4985179;28;20206;-76
2023/08/17 06:52:44;;;;;;;10.13;3.67;;;;;;;31.31;40.35;94667.34;4990336;28;20332;-76
2023/08/17 06:55:11;;;;;;;10.35;3.90;;;;;;;30.83;40.74;94664.00;4990247;28;20296;-76
2023/08/17 06:57:38;;;;;;;6.82;3.88;;;;;;;30.63;41.76;94674.72;4988412;28;20229;-76
2023/08/17 07:00:06;;;;;;;7.20;3.17;;;;;;;30.80;40.25;94669.72;4991503;28;20210;-78
2023/08/17 07:02:34;;;;;;;7.35;3.70;;;;;;;31.49;39.51;94661.03;4989028;28;20857;-76
2023/08/17 07:05:03;;;;;;;8.93;3.72;;;;;;;31.56;39.32;94658.72;4990959;28;20213;-76
2023/08/17 07:07:31;;;;;;;7.68;3.53;;;;;;;31.70;37.77;94655.38;4980905;28;20239;-75
2023/08/17 07:09:58;;;;;;;6.78;3.10;;;;;;;31.72;38.32;94660.47;4987023;28;20789;-76
2023/08/17 07:12:25;;;;;;;5.68;3.40;;;;;;;30.64;39.73;94673.50;4991448;28;20237;-76
2023/08/17 07:14:52;;;;;;;7.18;3.65;;;;;;;31.04;38.74;94665.94;4978637;28;20210;-77
2023/08/17 07:17:19;;;;;;;5.57;3.20;;;;;;;30.85;38.99;94658.72;4987004;28;20213;-75
2023/08/17 07:19:45;;;;;;;8.93;3.42;;;;;;;30.55;40.21;94660.25;4991699;28;20563;-75
2023/08/17 07:22:14;;;;;;;3.67;3.20;;;;;;;30.30;40.93;94669.53;4989627;28;20271;-76
2023/08/17 07:24:40;;;;;;;5.15;3.40;;;;;;;30.27;39.91;94664.84;4991256;28;20202;-77
2023/08/17 07:27:07;;;;;;;3.75;3.10;;;;;;;30.96;38.49;94661.88;4991850;28;20225;-75
2023/08/17 07:29:34;;;;;;;7.28;2.80;;;;;;;31.31;37.41;94662.50;4978900;28;20202;-77
2023/08/17 07:32:01;;;;;;;4.72;2.70;;;;;;;32.41;35.88;94657.91;4979624;28;20375;-75
2023/08/17 07:34:29;;;;;;;2.97;2.67;;;;;;;32.35;34.16;94662.59;4987312;28;20320;-76
2023/08/17 07:36:56;;;;;;;3.05;2.45;;;;;;;30.75;36.33;94654.31;4989825;28;20260;-75
2023/08/17 07:39:25;;;;;;;4.25;2.58;;;;;;;30.55;35.98;94660.25;4980631;28;20206;-76
2023/08/17 07:41:52;;;;;;;4.97;2.67;;;;;;;30.53;36.83;94662.69;4990988;28;20225;-76
2023/08/17 07:44:19;;;;;;;4.97;3.00;;;;;;;30.09;38.36;94659.09;4987615;28;20627;-76
2023/08/17 07:46:45;;;;;;;5.75;2.95;;;;;;;30.19;38.79;94663.53;4993366;28;20201;-76
2023/08/17 07:49:12;;;;;;;4.45;3.35;;;;;;;29.83;39.32;94663.94;4992424;28;20206;-76
2023/08/17 07:51:40;;;;;;;3.83;2.90;;;;;;;30.60;38.60;94659.66;4990809;28;20209;-76
2023/08/17 07:54:08;;;;;;;4.03;3.33;;;;;;;30.72;39.27;94646.84;4987069;28;20252;-75
2023/08/17 07:56:36;;;;;;;6.68;3.45;;;;;;;30.51;39.43;94658.78;4987952;28;20205;-76
2023/08/17 07:59:03;;;;;;;5.95;3.70;;;;;;;31.26;39.89;94653.94;4988449;28;20216;-76
2023/08/17 08:01:32;;;;;;;4.15;3.22;;;;;;;29.78;40.50;94655.38;4985970;28;20214;-76
2023/08/17 08:03:58;;;;;;;6.80;3.50;;;;;;;29.48;41.35;94651.97;4990372;28;20229;-75
2023/08/17 08:06:25;;;;;;;7.78;3.28;;;;;;;29.56;41.62;94649.72;4991230;28;20229;-74
2023/08/17 08:08:52;;;;;;;5.72;3.30;;;;;;;29.67;41.75;94650.91;4990502;28;20202;-76
2023/08/17 08:11:19;;;;;;;6.72;3.13;;;;;;;29.52;41.45;94643.50;4989479;28;20545;-75
2023/08/17 08:13:47;;;;;;;5.13;3.03;;;;;;;28.97;42.87;94651.22;4987710;28;20282;-74
2023/08/17 08:16:14;;;;;;;3.92;3.20;;;;;;;29.41;42.88;94638.25;4975305;28;20328;-74
2023/08/17 08:18:41;;;;;;;6.75;3.58;;;;;;;30.15;41.51;94634.94;4990143;28;20209;-74
2023/08/17 08:21:08;;;;;;;4.68;3.15;;;;;;;30.20;41.62;94637.16;4989076;28;20206;-74
2023/08/17 08:23:34;;;;;;;4.47;3.47;;;;;;;29.96;41.11;94633.19;4973747;28;20260;-76
2023/08/17 08:26:01;;;;;;;9.05;3.60;;;;;;;30.02;41.96;94626.59;4986586;28;20205;-75
2023/08/17 08:28:28;;;;;;;7.97;3.88;;;;;;;30.72;40.17;94635.66;4989394;28;20206;-75
2023/08/17 08:30:56;;;;;;;4.53;3.30;;;;;;;30.69;39.08;94628.94;4989473;28;20218;-75
2023/08/17 08:33:23;;;;;;;3.95;3.10;;;;;;;30.18;40.09;94628.44;4989705;28;20229;-75
2023/08/17 08:35:51;;;;;;;4.22;3.40;;;;;;;29.86;41.08;94632.31;4992332;28;20240;-76
2023/08/17 08:38:18;;;;;;;4.13;3.20;;;;;;;30.00;41.48;94633.88;4981652;28;20583;-75
2023/08/17 08:40:47;;;;;;;5.00;3.17;;;;;;;29.68;42.12;94649.69;4986374;28;20208;-75
2023/08/17 08:43:15;;;;;;;4.38;3.13;;;;;;;29.08;42.48;94640.50;4990062;28;20261;-76
2023/08/17 08:45:44;;;;;;;6.70;3.60;;;;;;;28.77;44.02;94637.44;4989014;28;20201;-75
2023/08/17 08:48:12;;;;;;;4.00;3.30;;;;;;;28.65;43.98;94638.19;4989937;28;20213;-75
2023/08/17 08:50:41;;;;;;;3.85;3.22;;;;;;;29.10;43.55;94634.47;4987680;28;20618;-75
2023/08/17 08:53:14;;;;;;;6.82;3.20;;;;;;;29.40;42.42;94631.09;4982077;28;20221;-75
2023/08/17 08:55:48;;;;;;;7.15;3.65;;;;;;;29.97;42.38;94623.59;4991540;28;20584;-76
2023/08/17 08:58:17;;;;;;;4.30;3.40;;;;;;;30.65;40.76;94621.91;4986971;28;20210;-75
2023/08/17 09:00:48;;;;;;;5.10;3.10;;;;;;;29.97;41.45;94618.00;4988621;28;20297;-76
2023/08/17 09:03:20;;;;;;;3.88;3.10;;;;;;;30.28;41.53;94618.09;4990475;28;20194;-75
2023/08/17 09:05:48;;;;;;;4.72;3.45;;;;;;;30.42;41.06;94622.38;4969853;28;20209;-75
2023/08/17 09:08:16;;;;;;;5.25;3.22;;;;;;;30.06;41.32;94608.94;4988532;28;20217;-78
2023/08/17 09:10:43;;;;;;;4.70;3.08;;;;;;;30.08;41.17;94612.81;4988764;28;20202;-78
2023/08/17 09:13:11;;;;;;;4.85;2.90;;;;;;;29.47;41.96;94607.75;4985378;28;20241;-77
2023/08/17 09:15:38;;;;;;;4.40;3.15;;;;;;;29.77;41.42;94603.53;4986859;28;20213;-78
2023/08/17 09:18:07;;;;;;;5.82;2.75;;;;;;;29.66;41.83;94598.31;4988689;28;20206;-78
2023/08/17 09:20:39;;;;;;;6.82;2.95;;;;;;;30.13;41.65;94587.09;4987882;28;20206;-78
2023/08/17 09:23:13;;;;;;;3.60;2.80;;;;;;;30.17;41.46;94584.94;4992765;28;20206;-77
2023/08/17 09:25:40;;;;;;;3.17;2.58;;;;;;;30.20;41.78;94592.44;4989722;28;20673;-78
2023/08/17 09:28:13;;;;;;;5.97;3.08;;;;;;;29.76;42.15;94596.41;4987894;28;20615;-78
2023/08/17 09:30:56;;;;;;;3.33;2.63;;;;;;;30.51;40.50;94578.47;4993666;28;20206;-78
2023/08/17 09:33:24;;;;;;;4.57;2.72;;;;;;;30.08;40.48;94579.28;4990440;28;20555;-78
2023/08/17 09:35:54;;;;;;;4.35;2.67;;;;;;;30.43;40.34;94582.00;4992126;28;20197;-77
2023/08/17 09:38:21;;;;;;;3.55;2.60;;;;;;;30.06;40.18;94576.19;4991382;28;20722;-78
2023/08/17 09:40:48;;;;;;;4.72;3.17;;;;;;;30.17;40.90;94565.38;4991299;28;20496;-78
2023/08/17 09:43:16;;;;;;;3.35;2.80;;;;;;;30.50;39.51;94568.50;4992248;28;20205;-77
2023/08/17 09:45:46;;;;;;;5.53;2.40;;;;;;;30.42;38.95;94570.03;4991735;28;20540;-77
2023/08/17 09:48:15;;;;;;;3.17;2.45;;;;;;;30.52;39.58;94562.47;4990514;28;20201;-78
2023/08/17 09:50:43;;;;;;;5.60;2.65;;;;;;;31.04;37.75;94559.59;4992856;28;20214;-77
2023/08/17 09:53:16;;;;;;;4.63;2.00;;;;;;;30.96;37.41;94557.56;4992775;28;20206;-77
2023/08/17 09:55:44;;;;;;;3.72;2.22;;;;;;;30.64;37.86;94542.81;4993529;28;20201;-78
2023/08/17 09:58:14;;;;;;;2.92;2.30;;;;;;;31.03;37.14;94552.44;4995677;28;20573;-78
2023/08/17 10:00:45;;;;;;;2.30;1.95;;;;;;;30.86;36.73;94542.00;4986727;28;20234;-77
2023/08/17 10:03:14;;;;;;;4.28;2.33;;;;;;;31.25;35.83;94551.59;4991620;28;20237;-79
2023/08/17 10:05:44;;;;;;;4.05;2.47;;;;;;;30.95;36.78;94553.97;4988547;28;20329;-77
2023/08/17 10:08:12;;;;;;;3.35;1.95;;;;;;;30.37;37.91;94560.22;4988470;28;20213;-75
2023/08/17 10:10:44;;;;;;;4.65;2.00;;;;;;;30.71;37.02;94547.38;4990147;28;20361;-78
2023/08/17 10:13:17;;;;;;;6.10;2.50;;;;;;;30.25;37.53;94544.31;4991965;28;20252;-76
2023/08/17 10:15:52;;;;;;;7.20;2.38;;;;;;;30.38;37.93;94542.19;4990357;28;20197;-79
2023/08/17 10:18:28;;;;;;;3.28;2.22;;;;;;;30.26;37.51;94548.66;4992122;28;20255;-78
2023/08/17 10:21:01;;;;;;;2.83;2.30;;;;;;;30.47;36.80;94543.50;4990357;28;20224;-77
2023/08/17 10:23:29;;;;;;;2.85;2.30;;;;;;;30.30;36.94;94535.34;4989285;28;20245;-78
2023/08/17 10:25:58;;;;;;;3.58;1.92;;;;;;;30.74;36.88;94540.88;4991298;28;20213;-78
2023/08/17 10:28:25;;;;;;;3.90;2.28;;;;;;;31.30;35.34;94536.97;4971918;28;20206;-79
2023/08/17 10:30:53;;;;;;;5.55;2.63;;;;;;;31.55;35.87;94539.53;4989257;28;20232;-79
2023/08/17 10:33:20;;;;;;;6.57;2.22;;;;;;;31.73;35.05;94542.34;4989167;28;20213;-80
2023/08/17 10:35:48;;;;;;;5.55;2.50;;;;;;;31.42;35.82;94539.66;4992254;28;20636;-78
2023/08/17 10:38:17;;;;;;;4.95;2.55;;;;;;;31.49;35.31;94524.56;4992109;28;20202;-79
2023/08/17 10:40:44;;;;;;;2.50;2.10;;;;;;;31.26;35.19;94531.53;4992600;28;20633;-78
2023/08/17 10:43:15;;;;;;;4.40;2.22;;;;;;;30.96;35.76;94533.16;4995712;28;20622;-79
2023/08/17 10:45:47;;;;;;;2.65;2.10;;;;;;;30.79;35.27;94536.66;4987706;28;20201;-78
2023/08/17 10:48:27;;;;;;;3.95;1.95;;;;;;;31.16;35.19;94532.00;4981500;28;20268;-77
2023/08/17 10:51:02;;;;;;;6.00;2.08;;;;;;;31.54;34.76;94523.97;4990801;28;20209;-77
2023/08/17 10:53:35;;;;;;;2.33;1.88;;;;;;;31.48;34.60;94541.84;4990682;28;20223;-80
2023/08/17 10:56:02;;;;;;;4.03;1.98;;;;;;;31.05;35.42;94526.78;4987242;28;20239;-79
2023/08/17 10:58:33;;;;;;;3.05;2.10;;;;;;;31.47;34.77;94524.25;4991330;28;20202;-78
2023/08/17 11:01:00;;;;;;;4.03;2.05;;;;;;;31.45;34.40;94515.53;4988668;28;20217;-78
2023/08/17 11:03:28;;;;;;;3.17;2.20;;;;;;;31.37;34.80;94514.28;4991635;28;20202;-79
2023/08/17 11:05:56;;;;;;;2.70;2.10;;;;;;;31.09;34.72;94505.84;4988382;28;20201;-79
2023/08/17 11:08:28;;;;;;;4.45;2.00;;;;;;;31.78;34.01;94510.91;4991427;28;20218;-77
2023/08/17 11:11:00;;;;;;;3.22;2.28;;;;;;;32.10;33.14;94508.69;4990504;28;20209;-78
2023/08/17 11:13:29;;;;;;;3.00;2.17;;;;;;;32.05;33.39;94500.91;4988758;28;20241;-79
2023/08/17 11:15:59;;;;;;;4.88;2.17;;;;;;;31.99;33.39;94508.38;4988291;28;20225;-79
2023/08/17 11:18:26;;;;;;;4.97;2.00;;;;;;;32.04;32.99;94504.94;4990118;28;20221;-78
2023/08/17 11:20:54;;;;;;;2.75;2.00;;;;;;;32.31;33.24;94496.50;4983434;28;20303;-78
2023/08/17 11:23:21;;;;;;;3.25;2.03;;;;;;;31.73;34.42;94497.50;4988154;28;20206;-79
2023/08/17 11:25:50;;;;;;;3.47;2.28;;;;;;;31.96;34.15;94504.50;4990692;28;20224;-79
2023/08/17 11:28:17;;;;;;;3.25;2.30;;;;;;;31.95;35.26;94497.34;4989601;28;20615;-78
2023/08/17 11:30:44;;;;;;;4.70;2.42;;;;;;;32.25;36.01;94484.38;4989764;28;20615;-77
2023/08/17 11:33:13;;;;;;;7.05;2.78;;;;;;;31.72;36.45;94501.56;4995660;28;20217;-79
2023/08/17 11:35:40;;;;;;;3.50;2.63;;;;;;;31.39;37.09;94495.00;4986743;28;20584;-78
2023/08/17 11:38:08;;;;;;;4.47;2.88;;;;;;;31.34;36.94;94488.00;4988931;28;20570;-78